Terminal Aerodrome Forecast
Issued by NWS Grand Rapids, MI

Current Version | Previous Version | Text Only | Print | Product List | Glossary On
Versions: 1 2 3 4 5 6 7 8 9 10 11 12 13 14 15 16 17 18 19
000
FTUS43 KGRR 071740
TAFGRR
TAF
KGRR 071740Z 0718/0818 25014G20KT P6SM OVC020
     FM080400 27013G23KT P6SM -SHSN OVC020
     FM081100 27014G24KT 3SM -SHSN OVC015
     FM081500 27014G24KT 1SM -SHSN BR OVC008=

USA.gov is the U.S. government's official web portal to all federal, state and local government web resources and services.